Time;durP1;ratioP1;P1;durP2;ratioP2;P2;SDS_P1;SDS_P2;PMS_P1;PMS_P2;Temp;Humidity;BMP_temperature;BMP_pressure;BME280_temperature;BME280_humidity;BME280_pressure;Samples;Min_cycle;Max_cycle;Signal;HPM_P1;HPM_P2
2023/07/01 00:00:27;;;;;;;11.73;2.80;;;;;;;18.74;87.51;100232.34;5076392;28;20037;-68
2023/07/01 00:02:53;;;;;;;10.50;2.70;;;;;;;18.83;87.06;100233.47;5042799;28;20215;-68
2023/07/01 00:05:21;;;;;;;11.10;2.53;;;;;;;18.87;86.47;100231.03;5075075;28;20048;-68
2023/07/01 00:07:47;;;;;;;7.65;2.47;;;;;;;18.84;86.18;100232.41;5060774;28;20032;-68
2023/07/01 00:10:13;;;;;;;11.05;2.70;;;;;;;18.87;85.88;100228.28;5025973;28;20053;-68
2023/07/01 00:12:38;;;;;;;11.52;2.80;;;;;;;18.73;86.18;100211.63;5076012;28;20037;-68
2023/07/01 00:15:04;;;;;;;14.35;3.03;;;;;;;18.89;85.84;100218.75;5041314;28;20040;-68
2023/07/01 00:17:29;;;;;;;10.40;2.55;;;;;;;18.85;86.31;100222.31;5070845;28;20037;-68
2023/07/01 00:19:55;;;;;;;12.82;2.65;;;;;;;18.77;86.94;100224.47;5058638;28;20025;-68
2023/07/01 00:22:20;;;;;;;14.20;2.90;;;;;;;18.89;86.81;100226.13;5041784;28;20143;-68
2023/07/01 00:24:46;;;;;;;15.80;3.10;;;;;;;18.87;86.86;100220.94;5060205;28;20250;-68
2023/07/01 00:27:11;;;;;;;13.13;2.90;;;;;;;18.91;86.90;100230.22;5059693;28;20025;-68
2023/07/01 00:29:37;;;;;;;10.43;2.97;;;;;;;18.94;87.00;100224.25;5042352;28;20039;-68
2023/07/01 00:32:03;;;;;;;13.55;2.78;;;;;;;18.94;87.08;100231.56;5042107;28;20051;-68
2023/07/01 00:34:28;;;;;;;14.15;3.08;;;;;;;18.96;87.16;100238.41;5058081;28;20029;-68
2023/07/01 00:36:54;;;;;;;19.52;3.65;;;;;;;18.99;87.18;100234.34;5062627;28;20117;-68
2023/07/01 00:39:19;;;;;;;12.80;2.40;;;;;;;18.95;87.74;100227.78;5058503;28;20025;-69
2023/07/01 00:41:52;;;;;;;14.25;2.63;;;;;;;19.01;87.96;100224.00;5041403;28;20128;-68
2023/07/01 00:44:17;;;;;;;14.70;2.90;;;;;;;18.99;87.90;100226.16;5057568;28;20057;-68
2023/07/01 00:46:43;;;;;;;10.30;2.50;;;;;;;18.93;88.38;100222.59;5053089;28;20522;-68
2023/07/01 00:49:08;;;;;;;15.02;2.63;;;;;;;18.93;88.01;100213.59;5056874;28;20028;-68
2023/07/01 00:51:34;;;;;;;11.73;3.22;;;;;;;18.89;88.04;100209.78;5058656;28;20044;-68
2023/07/01 00:53:59;;;;;;;13.35;2.40;;;;;;;18.84;87.86;100213.31;5056370;28;20029;-69
2023/07/01 00:56:25;;;;;;;14.00;3.08;;;;;;;18.87;87.91;100217.38;5073429;28;20033;-68
2023/07/01 00:58:50;;;;;;;15.00;2.60;;;;;;;18.90;87.26;100204.03;5058099;28;20115;-69
2023/07/01 01:01:21;;;;;;;8.32;2.42;;;;;;;18.98;87.46;100208.16;5056048;28;20037;-68
2023/07/01 01:04:08;;;;;;;9.05;2.55;;;;;;;19.04;87.16;100201.63;5058360;28;20534;-68
2023/07/01 01:06:43;;;;;;;10.07;2.63;;;;;;;18.99;87.23;100198.88;5040199;28;20029;-68
2023/07/01 01:09:26;;;;;;;11.18;2.70;;;;;;;19.03;87.16;100205.44;5057944;28;20027;-68
2023/07/01 01:11:54;;;;;;;11.05;2.80;;;;;;;18.95;86.77;100176.81;5056597;28;20064;-68
2023/07/01 01:14:21;;;;;;;10.52;2.58;;;;;;;19.03;86.98;100189.06;5059344;28;20024;-68
2023/07/01 01:16:49;;;;;;;10.50;2.65;;;;;;;19.03;87.07;100199.97;5074465;28;20032;-68
2023/07/01 01:19:37;;;;;;;10.95;2.65;;;;;;;19.05;87.22;100197.00;5057971;28;20036;-69
2023/07/01 01:22:30;;;;;;;10.93;2.60;;;;;;;19.03;87.24;100186.34;5058907;28;20036;-68
2023/07/01 01:25:00;;;;;;;10.85;2.38;;;;;;;18.95;87.04;100187.72;5041314;28;20379;-68
2023/07/01 01:27:36;;;;;;;11.60;3.10;;;;;;;18.93;87.18;100186.34;5059133;28;20030;-68
2023/07/01 01:30:03;;;;;;;13.82;2.45;;;;;;;18.92;86.52;100176.53;5056601;28;20390;-68
2023/07/01 01:32:28;;;;;;;10.25;2.33;;;;;;;18.90;86.41;100184.94;5056166;28;20513;-68
2023/07/01 01:34:54;;;;;;;11.02;2.65;;;;;;;18.96;85.47;100178.44;5068291;28;20061;-69
2023/07/01 01:37:26;;;;;;;7.32;2.15;;;;;;;18.97;85.45;100171.91;5060993;28;20103;-68
2023/07/01 01:39:59;;;;;;;10.55;2.50;;;;;;;18.86;85.75;100156.59;5052657;28;20395;-68
2023/07/01 01:42:29;;;;;;;12.90;3.00;;;;;;;18.97;85.97;100171.06;5056797;28;20028;-68
2023/07/01 01:44:56;;;;;;;11.60;2.70;;;;;;;19.02;85.68;100161.00;5055782;28;20106;-68
2023/07/01 01:47:25;;;;;;;7.30;2.40;;;;;;;19.06;86.16;100172.19;5053111;28;20091;-68
2023/07/01 01:49:55;;;;;;;8.55;2.92;;;;;;;19.01;86.89;100167.53;5039038;28;20056;-68
2023/07/01 01:52:22;;;;;;;12.32;2.60;;;;;;;19.04;87.00;100163.47;5056318;28;20025;-68
2023/07/01 01:54:50;;;;;;;10.18;2.28;;;;;;;19.04;87.53;100158.00;5056523;28;20029;-68
2023/07/01 01:57:16;;;;;;;12.77;2.67;;;;;;;19.00;87.83;100157.72;5056617;28;20651;-68
2023/07/01 01:59:43;;;;;;;9.95;2.58;;;;;;;19.05;88.08;100151.47;5054963;28;20021;-69
2023/07/01 02:02:09;;;;;;;11.35;2.85;;;;;;;19.09;87.72;100149.81;5056231;28;20154;-69
2023/07/01 02:04:34;;;;;;;10.63;2.50;;;;;;;18.97;87.64;100131.00;5056735;28;20104;-68
2023/07/01 02:07:00;;;;;;;10.00;2.70;;;;;;;19.07;87.74;100146.53;5072280;28;20032;-68
2023/07/01 02:09:25;;;;;;;12.70;2.67;;;;;;;19.03;87.80;100131.81;5055232;28;20029;-69
2023/07/01 02:11:51;;;;;;;12.68;2.83;;;;;;;19.10;88.08;100143.25;5038510;28;20044;-68
2023/07/01 02:14:16;;;;;;;9.88;2.45;;;;;;;19.00;87.90;100126.91;5071390;28;20043;-68
2023/07/01 02:16:42;;;;;;;8.68;2.10;;;;;;;19.06;88.13;100139.44;5071822;28;20032;-68
2023/07/01 02:19:07;;;;;;;10.50;2.45;;;;;;;19.05;88.22;100137.81;5056140;28;20705;-68
2023/07/01 02:21:33;;;;;;;11.25;2.35;;;;;;;19.04;88.10;100133.47;5033623;28;20048;-68
2023/07/01 02:23:59;;;;;;;6.93;2.17;;;;;;;19.08;87.60;100134.56;4973680;28;20035;-68
2023/07/01 02:26:24;;;;;;;9.27;2.33;;;;;;;19.05;87.54;100134.28;4974415;28;20060;-68
2023/07/01 02:28:50;;;;;;;7.97;2.33;;;;;;;19.03;87.39;100140.00;5027949;28;20034;-69
2023/07/01 02:31:18;;;;;;;10.93;2.40;;;;;;;18.97;87.33;100136.47;5043233;28;20041;-68
2023/07/01 02:33:49;;;;;;;12.05;2.40;;;;;;;19.01;87.24;100139.47;5022531;28;20080;-69
2023/07/01 02:36:14;;;;;;;9.63;2.00;;;;;;;19.00;87.11;100127.72;5039159;28;20121;-68
2023/07/01 02:38:40;;;;;;;8.57;2.20;;;;;;;19.03;86.78;100131.81;4974460;28;20050;-68
2023/07/01 02:41:05;;;;;;;9.18;2.00;;;;;;;19.00;86.61;100114.09;5041270;28;20038;-68
2023/07/01 02:43:31;;;;;;;11.55;2.38;;;;;;;19.05;86.95;100126.91;4975121;28;20649;-68
2023/07/01 02:45:56;;;;;;;9.77;1.92;;;;;;;19.11;86.37;100135.94;5041369;28;20064;-69
2023/07/01 02:48:22;;;;;;;7.95;2.17;;;;;;;19.10;86.04;100110.53;5041058;28;20373;-68
2023/07/01 02:50:47;;;;;;;8.95;2.10;;;;;;;19.13;86.08;100120.09;5040885;28;20031;-68
2023/07/01 02:53:13;;;;;;;8.38;2.00;;;;;;;19.07;86.12;100122.00;5041220;28;20084;-68
2023/07/01 02:55:38;;;;;;;7.72;1.77;;;;;;;19.11;85.49;100123.09;5041481;28;20042;-68
2023/07/01 02:58:04;;;;;;;9.40;2.08;;;;;;;19.07;85.29;100113.81;4974263;28;20027;-68
2023/07/01 03:00:30;;;;;;;7.95;1.90;;;;;;;19.12;84.88;100107.56;5040785;28;20038;-68
2023/07/01 03:03:05;;;;;;;7.60;1.70;;;;;;;19.07;84.89;100116.53;4974480;28;20106;-68
2023/07/01 03:05:32;;;;;;;11.77;1.98;;;;;;;19.14;84.40;100108.94;5037317;28;20400;-68
2023/07/01 03:07:58;;;;;;;7.70;1.98;;;;;;;19.20;84.21;100107.00;5044617;28;20042;-68
2023/07/01 03:10:23;;;;;;;9.55;2.08;;;;;;;19.21;84.13;100103.19;5045015;28;20034;-68
2023/07/01 03:12:49;;;;;;;5.57;1.70;;;;;;;19.25;84.08;100099.63;5044661;28;20130;-68
2023/07/01 03:15:14;;;;;;;9.88;1.75;;;;;;;19.22;84.38;100094.72;4973750;28;20030;-68
2023/07/01 03:17:40;;;;;;;6.28;1.58;;;;;;;19.15;84.24;100077.84;5042898;28;20496;-68
2023/07/01 03:20:06;;;;;;;8.95;2.38;;;;;;;19.22;84.46;100086.56;5027874;28;20031;-68
2023/07/01 03:22:32;;;;;;;6.50;1.75;;;;;;;19.14;83.97;100064.44;5044390;28;20088;-68
2023/07/01 03:24:57;;;;;;;8.32;1.77;;;;;;;19.27;84.31;100083.00;5044391;28;20485;-69
2023/07/01 03:27:22;;;;;;;6.55;2.08;;;;;;;19.39;84.00;100093.63;4977554;28;20023;-68
2023/07/01 03:29:48;;;;;;;7.55;1.88;;;;;;;19.45;83.84;100084.34;5029877;28;20033;-69
2023/07/01 03:32:13;;;;;;;7.32;1.95;;;;;;;19.49;83.61;100078.06;4977854;28;20200;-68
2023/07/01 03:34:39;;;;;;;8.07;1.92;;;;;;;19.51;84.40;100080.53;5027798;28;20038;-68
2023/07/01 03:37:05;;;;;;;10.07;2.40;;;;;;;19.54;84.52;100074.50;4977342;28;20508;-68
2023/07/01 03:39:31;;;;;;;8.65;1.90;;;;;;;19.60;84.27;100073.41;5043787;28;20126;-69
2023/07/01 03:41:57;;;;;;;10.30;2.35;;;;;;;19.39;84.13;100030.88;5027735;28;20066;-68
2023/07/01 03:44:22;;;;;;;9.32;1.55;;;;;;;19.70;83.66;100080.75;5028135;28;20047;-68
2023/07/01 03:46:47;;;;;;;10.15;1.70;;;;;;;19.74;83.43;100081.84;5044045;28;20187;-68
2023/07/01 03:49:13;;;;;;;6.90;2.05;;;;;;;19.70;83.02;100072.56;5044801;28;20490;-68
2023/07/01 03:51:38;;;;;;;7.25;1.50;;;;;;;19.78;82.42;100073.94;5044435;28;20030;-69
2023/07/01 03:54:04;;;;;;;5.05;1.55;;;;;;;19.81;81.94;100070.66;5027124;28;20484;-68
2023/07/01 03:56:29;;;;;;;8.30;1.70;;;;;;;19.82;81.92;100058.63;4977565;28;20499;-69
2023/07/01 03:58:54;;;;;;;5.53;1.42;;;;;;;19.84;81.64;100062.72;5026121;28;20038;-68
2023/07/01 04:01:22;;;;;;;7.15;1.60;;;;;;;19.72;81.65;100059.47;5040682;28;20396;-68
2023/07/01 04:03:47;;;;;;;6.60;1.55;;;;;;;19.72;81.33;100056.75;5045917;28;20116;-68
2023/07/01 04:06:13;;;;;;;4.88;1.90;;;;;;;19.74;80.53;100061.94;5029200;28;20549;-68
2023/07/01 04:08:38;;;;;;;6.57;1.65;;;;;;;19.83;80.44;100060.25;4961844;28;20413;-68
2023/07/01 04:11:04;;;;;;;5.70;1.83;;;;;;;19.90;80.04;100050.69;5045719;28;20541;-68
2023/07/01 04:13:29;;;;;;;6.50;1.63;;;;;;;19.86;79.63;100040.56;5045169;28;20046;-68
2023/07/01 04:15:55;;;;;;;3.85;1.30;;;;;;;19.84;79.27;100034.59;5045147;28;20038;-69
2023/07/01 04:18:20;;;;;;;7.78;1.80;;;;;;;19.97;79.12;100042.19;5044804;28;20587;-69
2023/07/01 04:20:46;;;;;;;5.65;1.30;;;;;;;20.01;79.24;100040.53;4977934;28;20031;-68
2023/07/01 04:23:12;;;;;;;5.75;1.35;;;;;;;20.03;79.37;100035.56;5028698;28;20049;-68
2023/07/01 04:25:38;;;;;;;6.25;1.40;;;;;;;20.06;79.48;100037.75;4993879;28;20042;-68
2023/07/01 04:28:05;;;;;;;3.58;1.38;;;;;;;19.92;79.95;100014.88;5027961;28;20041;-68
2023/07/01 04:30:30;;;;;;;3.92;1.40;;;;;;;20.05;80.34;100029.84;5026704;28;20068;-68
2023/07/01 04:32:55;;;;;;;5.95;1.70;;;;;;;20.05;80.44;100027.13;5044773;28;20027;-68
2023/07/01 04:35:21;;;;;;;5.43;1.38;;;;;;;19.97;80.34;100001.22;4978043;28;20027;-68
2023/07/01 04:37:47;;;;;;;5.40;1.80;;;;;;;20.12;80.59;100022.97;4976597;28;20031;-69
2023/07/01 04:40:12;;;;;;;6.35;1.58;;;;;;;20.07;80.91;100022.22;5044332;28;20035;-69
2023/07/01 04:42:45;;;;;;;8.02;1.52;;;;;;;20.08;80.79;100012.91;5044529;28;20038;-68
2023/07/01 04:45:10;;;;;;;5.20;1.40;;;;;;;20.07;80.90;100008.56;5025014;28;20096;-68
2023/07/01 04:47:38;;;;;;;6.68;1.40;;;;;;;20.06;80.56;99994.06;5038736;28;20547;-68
2023/07/01 04:50:04;;;;;;;4.30;1.20;;;;;;;20.11;80.61;100001.41;5022488;28;20133;-68
2023/07/01 04:52:29;;;;;;;12.10;1.50;;;;;;;20.06;79.74;99994.06;5055280;28;20030;-68
2023/07/01 04:54:55;;;;;;;6.90;1.60;;;;;;;20.03;79.32;99993.81;5022696;28;20029;-69
2023/07/01 04:57:20;;;;;;;8.38;2.03;;;;;;;20.00;78.78;99989.75;5055408;28;20033;-69
2023/07/01 04:59:45;;;;;;;7.60;1.55;;;;;;;20.05;78.97;99986.16;5040047;28;20029;-68
2023/07/01 05:02:11;;;;;;;4.75;1.30;;;;;;;20.01;79.10;99991.38;5022365;28;20446;-68
2023/07/01 05:04:37;;;;;;;5.43;1.67;;;;;;;20.10;79.19;99989.69;5039725;28;20032;-68
2023/07/01 05:07:03;;;;;;;5.07;1.52;;;;;;;20.12;79.80;99982.00;5039124;28;20056;-69
2023/07/01 05:09:29;;;;;;;5.32;1.58;;;;;;;19.87;80.17;99936.56;5020341;28;20025;-68
2023/07/01 05:11:54;;;;;;;8.52;1.60;;;;;;;20.09;81.18;99982.56;5054008;28;20048;-69
2023/07/01 05:14:20;;;;;;;7.80;1.55;;;;;;;20.06;81.92;99980.41;5037764;28;20102;-69
2023/07/01 05:16:45;;;;;;;8.82;1.63;;;;;;;20.05;82.72;99978.78;5021230;28;20148;-69
2023/07/01 05:19:11;;;;;;;5.35;1.65;;;;;;;19.96;83.36;99980.47;5004884;28;20037;-68
2023/07/01 05:21:37;;;;;;;5.28;1.70;;;;;;;19.94;83.80;99975.28;5012781;28;20037;-68
2023/07/01 05:24:04;;;;;;;7.25;1.60;;;;;;;19.93;84.31;99970.94;5019345;28;20460;-68
2023/07/01 05:26:29;;;;;;;8.85;1.80;;;;;;;19.94;84.62;99971.75;5012892;28;20057;-71
2023/07/01 05:28:56;;;;;;;5.00;1.70;;;;;;;19.90;84.95;99982.41;5004316;28;20121;-72
2023/07/01 05:31:22;;;;;;;8.52;2.05;;;;;;;19.87;85.64;99979.44;5000347;28;20026;-71
2023/07/01 05:33:47;;;;;;;5.53;1.80;;;;;;;19.91;85.87;99969.59;5004450;28;20045;-69
2023/07/01 05:36:13;;;;;;;5.25;1.88;;;;;;;19.76;86.39;99956.00;5018895;28;20021;-70
2023/07/01 05:38:41;;;;;;;3.75;1.60;;;;;;;19.82;87.36;99968.53;5018631;28;20492;-69
2023/07/01 05:41:07;;;;;;;7.82;2.00;;;;;;;19.86;87.38;99964.94;5012582;28;20492;-70
2023/07/01 05:43:32;;;;;;;4.72;1.83;;;;;;;19.84;87.17;99958.97;5028136;28;20064;-69
2023/07/01 05:45:57;;;;;;;6.72;1.70;;;;;;;19.81;87.64;99959.53;5050386;28;20044;-71
2023/07/01 05:48:23;;;;;;;5.70;1.80;;;;;;;19.85;87.66;99949.66;5061874;28;20032;-69
2023/07/01 05:50:48;;;;;;;6.55;1.83;;;;;;;19.94;87.23;99953.44;5039284;28;20502;-69
2023/07/01 05:53:14;;;;;;;9.00;2.25;;;;;;;19.95;87.49;99951.53;5052572;28;20028;-68
2023/07/01 05:55:39;;;;;;;5.68;1.95;;;;;;;20.10;87.06;99947.91;5036429;28;20368;-69
2023/07/01 05:58:04;;;;;;;5.18;1.77;;;;;;;20.14;86.63;99932.56;5052016;28;20025;-70
2023/07/01 06:00:30;;;;;;;5.70;1.52;;;;;;;20.31;86.61;99946.66;5037310;28;20112;-70
2023/07/01 06:02:57;;;;;;;8.30;1.70;;;;;;;20.28;87.41;99951.88;5052084;28;20052;-70
2023/07/01 06:05:22;;;;;;;6.13;1.80;;;;;;;20.10;87.87;99954.19;5051802;28;20063;-70
2023/07/01 06:07:49;;;;;;;5.60;1.88;;;;;;;19.92;87.68;99952.09;5020224;28;20036;-68
2023/07/01 06:10:15;;;;;;;4.05;1.75;;;;;;;19.66;87.75;99935.03;5056572;28;20029;-69
2023/07/01 06:12:40;;;;;;;8.85;1.70;;;;;;;19.64;87.77;99942.69;5048587;28;20032;-68
2023/07/01 06:15:06;;;;;;;7.57;2.05;;;;;;;19.59;87.38;99938.03;5055727;28;20392;-68
2023/07/01 06:17:32;;;;;;;4.60;1.85;;;;;;;19.54;87.78;99935.34;5056958;28;20033;-69
2023/07/01 06:19:57;;;;;;;7.18;1.50;;;;;;;19.46;87.78;99942.19;5055731;28;20082;-69
2023/07/01 06:22:22;;;;;;;9.18;2.05;;;;;;;19.39;87.82;99935.41;5038182;28;20174;-67
2023/07/01 06:24:48;;;;;;;3.83;1.60;;;;;;;19.45;88.25;99945.19;5041184;28;20048;-69
2023/07/01 06:27:14;;;;;;;6.85;2.08;;;;;;;19.44;88.64;99935.38;5039828;28;20021;-68
2023/07/01 06:29:39;;;;;;;5.82;2.03;;;;;;;19.48;88.46;99937.28;5053619;28;20036;-68
2023/07/01 06:32:05;;;;;;;5.38;1.80;;;;;;;19.47;88.62;99935.66;5058810;28;20107;-68
2023/07/01 06:34:30;;;;;;;6.93;1.85;;;;;;;19.52;88.62;99932.06;5057436;28;20112;-69
2023/07/01 06:36:56;;;;;;;9.20;2.03;;;;;;;19.54;89.13;99927.16;5038547;28;20053;-69
2023/07/01 06:39:21;;;;;;;7.53;2.28;;;;;;;19.53;88.88;99906.41;5054638;28;20032;-69
2023/07/01 06:41:47;;;;;;;8.88;2.13;;;;;;;19.74;88.84;99930.91;5061183;28;20033;-69
2023/07/01 06:44:13;;;;;;;8.98;2.10;;;;;;;19.88;88.58;99921.00;5055217;28;20037;-70
2023/07/01 06:46:39;;;;;;;9.60;2.20;;;;;;;20.02;88.13;99919.25;5049397;28;20028;-69
2023/07/01 06:49:04;;;;;;;10.05;2.25;;;;;;;20.15;87.97;99910.44;5054674;28;20029;-68
2023/07/01 06:51:29;;;;;;;6.88;2.08;;;;;;;20.32;87.63;99893.63;5054112;28;20033;-69
2023/07/01 06:53:55;;;;;;;8.55;1.85;;;;;;;20.49;87.14;99903.31;5056949;28;20040;-69
2023/07/01 06:56:20;;;;;;;4.97;1.85;;;;;;;20.70;86.16;99898.53;5057251;28;20033;-69
2023/07/01 06:58:46;;;;;;;5.80;1.60;;;;;;;20.78;85.17;99900.63;5058088;28;20089;-69
2023/07/01 07:01:11;;;;;;;8.18;1.60;;;;;;;20.90;84.56;99895.59;5039157;28;20082;-70
2023/07/01 07:03:39;;;;;;;4.30;1.35;;;;;;;20.94;83.04;99895.81;5023388;28;20171;-70
2023/07/01 07:06:05;;;;;;;5.30;1.50;;;;;;;21.02;82.24;99889.69;5024642;28;20033;-69
2023/07/01 07:08:31;;;;;;;4.38;1.30;;;;;;;21.08;81.44;99889.34;5058594;28;20104;-70
2023/07/01 07:10:56;;;;;;;5.65;1.40;;;;;;;21.13;80.84;99887.69;5058432;28;20159;-70
2023/07/01 07:13:22;;;;;;;3.45;1.25;;;;;;;21.14;80.21;99881.09;5057619;28;20029;-70
2023/07/01 07:15:47;;;;;;;7.47;1.67;;;;;;;21.20;80.14;99878.00;5039449;28;20032;-69
2023/07/01 07:18:13;;;;;;;6.10;1.52;;;;;;;21.24;79.96;99875.50;5022931;28;20032;-69
2023/07/01 07:20:39;;;;;;;2.92;1.75;;;;;;;21.11;80.30;99877.00;5057088;28;20021;-70
2023/07/01 07:23:06;;;;;;;4.25;1.50;;;;;;;21.20;79.92;99875.28;5057599;28;20080;-70
2023/07/01 07:25:32;;;;;;;3.95;1.88;;;;;;;21.16;80.10;99874.22;5040302;28;20091;-70
2023/07/01 07:27:58;;;;;;;4.22;1.60;;;;;;;21.03;80.24;99859.34;5055036;28;20124;-70
2023/07/01 07:30:23;;;;;;;5.68;1.80;;;;;;;21.10;80.55;99867.19;5063000;28;20036;-70
2023/07/01 07:32:49;;;;;;;4.18;1.80;;;;;;;21.08;80.79;99872.94;5041122;28;20396;-70
2023/07/01 07:35:14;;;;;;;5.90;1.85;;;;;;;20.96;81.74;99869.81;5056616;28;20467;-70
2023/07/01 07:37:40;;;;;;;6.05;1.85;;;;;;;20.79;82.67;99869.44;5056882;28;20102;-69
2023/07/01 07:40:07;;;;;;;6.85;1.80;;;;;;;20.71;83.04;99861.88;5055926;28;20452;-70
2023/07/01 07:42:32;;;;;;;5.93;2.10;;;;;;;20.48;83.94;99858.78;5040475;28;20100;-70
2023/07/01 07:44:58;;;;;;;4.68;1.83;;;;;;;20.52;84.20;99864.53;5023030;28;20103;-70
2023/07/01 07:47:23;;;;;;;9.18;2.30;;;;;;;20.63;84.04;99863.34;5040287;28;20036;-70
2023/07/01 07:49:49;;;;;;;5.57;2.03;;;;;;;20.80;83.33;99865.63;5040042;28;20044;-70
2023/07/01 07:52:14;;;;;;;6.47;2.05;;;;;;;21.24;81.87;99846.22;5047160;28;20033;-70
2023/07/01 07:54:44;;;;;;;4.68;1.85;;;;;;;21.57;79.06;99844.41;5043616;28;20107;-69
2023/07/01 07:57:10;;;;;;;6.22;2.00;;;;;;;21.78;76.44;99842.19;5060196;28;20080;-69
2023/07/01 07:59:35;;;;;;;5.90;1.80;;;;;;;21.92;73.99;99849.66;5043493;28;20049;-69
2023/07/01 08:02:01;;;;;;;5.53;2.00;;;;;;;22.04;72.82;99844.53;5052247;28;20033;-69
2023/07/01 08:04:27;;;;;;;4.13;2.15;;;;;;;22.29;71.11;99846.06;5047958;28;20028;-69
2023/07/01 08:06:53;;;;;;;6.20;1.90;;;;;;;22.66;69.25;99853.34;5059658;28;20036;-68
2023/07/01 08:09:19;;;;;;;5.32;2.13;;;;;;;22.76;68.25;99844.13;5059646;28;20028;-70
2023/07/01 08:11:45;;;;;;;6.18;2.15;;;;;;;23.10;66.42;99843.75;5043403;28;20039;-69
2023/07/01 08:14:11;;;;;;;4.57;2.10;;;;;;;23.01;65.99;99840.06;5040234;28;20108;-70
2023/07/01 08:16:37;;;;;;;8.63;2.42;;;;;;;22.89;65.15;99848.81;5056823;28;20029;-69
2023/07/01 08:19:03;;;;;;;4.60;2.30;;;;;;;22.97;65.62;99844.56;5042134;28;20506;-69
2023/07/01 08:21:29;;;;;;;3.92;1.90;;;;;;;23.05;65.54;99838.38;5045528;28;20037;-69
2023/07/01 08:23:54;;;;;;;5.05;2.20;;;;;;;22.96;65.04;99841.00;5048463;28;20038;-69
2023/07/01 08:26:20;;;;;;;3.65;2.05;;;;;;;23.25;64.43;99831.63;5036420;28;20048;-69
2023/07/01 08:28:45;;;;;;;6.22;2.15;;;;;;;23.09;63.64;99836.63;5056836;28;20052;-69
2023/07/01 08:31:11;;;;;;;4.47;2.08;;;;;;;23.12;63.42;99829.72;5042277;28;20044;-69
2023/07/01 08:33:36;;;;;;;4.30;1.80;;;;;;;23.38;62.46;99825.31;5060313;28;20073;-69
2023/07/01 08:36:02;;;;;;;5.45;2.10;;;;;;;23.87;61.13;99834.66;5041397;28;20025;-70
2023/07/01 08:38:30;;;;;;;4.88;2.00;;;;;;;24.09;59.85;99825.59;5041958;28;20120;-69
2023/07/01 08:41:02;;;;;;;5.63;2.20;;;;;;;24.06;59.84;99820.72;5051525;28;20053;-70
2023/07/01 08:43:29;;;;;;;4.38;2.08;;;;;;;24.14;59.03;99817.22;5060619;28;20076;-69
2023/07/01 08:46:02;;;;;;;4.97;2.45;;;;;;;24.13;58.95;99823.81;5059415;28;20036;-70
2023/07/01 08:48:30;;;;;;;3.92;1.98;;;;;;;24.16;57.99;99819.66;5059979;28;20037;-69
2023/07/01 08:51:24;;;;;;;5.45;2.20;;;;;;;23.96;56.57;99807.22;5058539;28;20064;-69
2023/07/01 08:53:58;;;;;;;4.10;1.85;;;;;;;24.16;57.51;99811.41;5060595;28;20051;-70
2023/07/01 08:56:24;;;;;;;4.18;1.83;;;;;;;24.50;57.13;99807.25;5058386;28;20036;-70
2023/07/01 08:58:50;;;;;;;3.33;1.70;;;;;;;24.54;56.66;99814.56;5042574;28;20447;-69
2023/07/01 09:01:16;;;;;;;4.22;2.00;;;;;;;24.55;55.74;99779.63;5054194;28;20033;-69
2023/07/01 09:03:42;;;;;;;2.75;1.85;;;;;;;24.62;56.19;99793.72;5038936;28;20052;-69
2023/07/01 09:06:08;;;;;;;3.95;2.05;;;;;;;24.74;56.15;99790.38;5038196;28;20659;-69
2023/07/01 09:08:38;;;;;;;4.15;2.00;;;;;;;24.54;56.30;99797.25;5040207;28;20076;-70
2023/07/01 09:11:04;;;;;;;5.05;2.00;;;;;;;24.33;56.35;99799.69;5040034;28;20017;-71
2023/07/01 09:13:29;;;;;;;3.85;2.00;;;;;;;24.34;56.69;99790.34;5006349;28;20064;-69
2023/07/01 09:15:55;;;;;;;7.95;2.08;;;;;;;24.47;56.58;99788.63;5039968;28;20022;-70
2023/07/01 09:18:25;;;;;;;3.53;1.70;;;;;;;24.56;56.36;99792.22;5038577;28;20026;-69
2023/07/01 09:20:55;;;;;;;3.83;1.60;;;;;;;24.71;55.78;99789.06;5043810;28;20052;-68
2023/07/01 09:23:38;;;;;;;3.17;1.50;;;;;;;24.56;55.87;99790.28;5044742;28;20038;-69
2023/07/01 09:26:06;;;;;;;3.17;1.33;;;;;;;24.48;56.07;99788.31;5038170;28;20047;-69
2023/07/01 09:28:33;;;;;;;4.43;1.50;;;;;;;24.61;55.69;99789.34;5035768;28;20076;-69
2023/07/01 09:31:00;;;;;;;4.28;1.45;;;;;;;24.52;55.74;99785.75;5036506;28;20029;-70
2023/07/01 09:33:26;;;;;;;4.53;1.75;;;;;;;24.70;55.50;99779.19;5036741;28;20025;-70
2023/07/01 09:36:01;;;;;;;3.00;1.45;;;;;;;24.80;55.98;99776.16;5037196;28;20029;-70
2023/07/01 09:38:29;;;;;;;4.00;1.60;;;;;;;25.07;55.11;99768.75;5036354;28;20025;-70
2023/07/01 09:40:55;;;;;;;2.50;1.30;;;;;;;25.28;54.54;99771.72;5035241;28;20037;-70
2023/07/01 09:43:33;;;;;;;3.40;1.50;;;;;;;25.27;54.45;99770.94;5037858;28;20048;-69
2023/07/01 09:45:58;;;;;;;3.58;1.73;;;;;;;25.20;54.71;99761.50;5036759;28;20036;-69
2023/07/01 09:48:24;;;;;;;3.75;1.92;;;;;;;25.47;54.79;99757.66;5037670;28;20033;-69
2023/07/01 09:50:50;;;;;;;5.65;1.48;;;;;;;25.66;54.24;99755.38;5019922;28;20060;-69
2023/07/01 09:53:19;;;;;;;3.58;1.30;;;;;;;25.85;53.33;99740.47;5036317;28;20029;-69
2023/07/01 09:55:46;;;;;;;3.20;1.30;;;;;;;25.92;53.45;99746.28;5037061;28;20055;-69
2023/07/01 09:58:12;;;;;;;4.13;1.63;;;;;;;25.89;52.68;99736.72;5039473;28;20485;-69
2023/07/01 10:00:38;;;;;;;2.28;1.40;;;;;;;25.91;52.43;99739.97;5038617;28;20038;-70
2023/07/01 10:03:03;;;;;;;3.15;1.65;;;;;;;26.07;52.56;99742.19;5020382;28;20037;-69
2023/07/01 10:05:30;;;;;;;5.25;1.58;;;;;;;26.02;52.21;99732.13;5020375;28;20033;-69
2023/07/01 10:07:56;;;;;;;3.67;1.30;;;;;;;26.27;52.15;99735.16;5019379;28;20021;-70
2023/07/01 10:10:21;;;;;;;4.03;1.30;;;;;;;26.31;51.87;99734.16;5021548;28;20021;-71
2023/07/01 10:12:50;;;;;;;3.30;1.77;;;;;;;26.28;51.08;99711.94;5039339;28;20057;-69
2023/07/01 10:15:23;;;;;;;3.05;1.40;;;;;;;26.07;51.95;99714.63;5039595;28;20398;-69
2023/07/01 10:17:50;;;;;;;4.07;1.65;;;;;;;25.97;52.72;99721.31;5057111;28;20387;-69
2023/07/01 10:20:33;;;;;;;3.67;1.40;;;;;;;26.23;51.69;99715.72;5057760;28;20037;-68
2023/07/01 10:23:03;;;;;;;3.33;1.50;;;;;;;26.21;52.00;99720.72;5057688;28;20032;-69
2023/07/01 10:25:36;;;;;;;4.82;1.70;;;;;;;25.97;51.83;99708.31;5057502;28;20387;-69
2023/07/01 10:28:01;;;;;;;3.85;1.40;;;;;;;25.87;52.58;99702.38;5055020;28;20036;-69
2023/07/01 10:30:47;;;;;;;2.95;1.52;;;;;;;25.96;52.67;99703.97;5036892;28;20029;-70
2023/07/01 10:33:28;;;;;;;2.53;1.40;;;;;;;26.12;51.99;99700.66;5035512;28;20057;-70
2023/07/01 10:36:06;;;;;;;2.83;1.50;;;;;;;26.00;53.20;99691.13;5037167;28;20508;-70
2023/07/01 10:38:34;;;;;;;3.83;1.40;;;;;;;26.01;52.82;99695.50;5019356;28;20036;-70
2023/07/01 10:41:00;;;;;;;2.45;1.67;;;;;;;25.73;52.24;99672.22;5036193;28;20021;-69
2023/07/01 10:43:27;;;;;;;4.15;1.83;;;;;;;25.64;52.16;99683.25;5037648;28;20055;-69
2023/07/01 10:46:22;;;;;;;3.05;1.70;;;;;;;25.83;53.28;99679.34;5038894;28;20025;-70
2023/07/01 10:49:02;;;;;;;4.22;1.50;;;;;;;25.80;54.04;99671.72;5042811;28;20024;-70
2023/07/01 10:51:51;;;;;;;2.90;1.60;;;;;;;25.70;54.39;99667.38;5043146;28;20491;-69
2023/07/01 10:54:31;;;;;;;3.28;1.85;;;;;;;25.27;55.74;99671.81;5058450;28;20101;-71
2023/07/01 10:57:15;;;;;;;5.10;2.50;;;;;;;24.83;56.79;99657.19;5039014;28;20037;-71
2023/07/01 10:59:41;;;;;;;2.95;1.77;;;;;;;24.85;57.15;99670.63;5038325;28;20029;-71
2023/07/01 11:02:09;;;;;;;6.82;3.17;;;;;;;24.95;56.76;99655.75;5038141;28;20471;-69
2023/07/01 11:05:11;;;;;;;6.57;1.95;;;;;;;24.99;57.15;99659.47;5037270;28;20454;-69
2023/07/01 11:07:41;;;;;;;3.55;2.15;;;;;;;24.98;57.42;99664.16;4973447;28;20065;-69
2023/07/01 11:10:07;;;;;;;4.65;2.25;;;;;;;24.97;57.15;99659.00;5042513;28;20040;-71
2023/07/01 11:12:34;;;;;;;3.90;1.73;;;;;;;24.95;57.68;99658.50;5039346;28;20028;-70
2023/07/01 11:15:00;;;;;;;4.18;1.77;;;;;;;24.98;57.45;99652.34;5056161;28;20025;-70
2023/07/01 11:17:26;;;;;;;5.50;1.70;;;;;;;25.09;57.62;99648.13;5039031;28;20612;-70
2023/07/01 11:19:56;;;;;;;3.83;1.80;;;;;;;25.19;57.69;99642.31;5056062;28;20067;-68
2023/07/01 11:22:21;;;;;;;4.15;1.75;;;;;;;25.26;57.81;99636.31;5038081;28;20029;-69
2023/07/01 11:24:47;;;;;;;3.67;1.85;;;;;;;25.34;57.57;99649.28;5035889;28;20767;-68
2023/07/01 11:27:12;;;;;;;4.65;1.95;;;;;;;25.46;57.12;99641.19;5054405;28;20098;-68
2023/07/01 11:29:42;;;;;;;4.15;1.80;;;;;;;25.41;57.56;99632.25;5042575;28;20021;-68